Time;durP1;ratioP1;P1;durP2;ratioP2;P2;SDS_P1;SDS_P2;PMS_P1;PMS_P2;Temp;Humidity;BMP_temperature;BMP_pressure;BME280_temperature;BME280_humidity;BME280_pressure;Samples;Min_cycle;Max_cycle;Signal;HPM_P1;HPM_P2
2023/03/15 00:01:34;;;;;;;9.05;4.85;;;2.00;34.80;;;;;;7370128;19;20006;-70
2023/03/15 00:04:04;;;;;;;7.57;5.18;;;1.90;34.50;;;;;;7368672;19;20476;-70
2023/03/15 00:06:35;;;;;;;9.80;6.00;;;2.10;35.70;;;;;;7370626;19;20488;-70
2023/03/15 00:09:05;;;;;;;8.90;6.22;;;2.10;35.70;;;;;;7370149;19;20024;-70
2023/03/15 00:11:35;;;;;;;10.43;6.93;;;2.00;34.00;;;;;;7392216;19;20031;-70
2023/03/15 00:14:05;;;;;;;10.35;6.65;;;2.10;34.70;;;;;;7367446;19;20023;-70
2023/03/15 00:16:37;;;;;;;9.25;6.53;;;2.00;34.00;;;;;;7369839;19;20020;-70
2023/03/15 00:19:07;;;;;;;9.52;6.63;;;2.10;36.00;;;;;;7368362;19;20052;-71
2023/03/15 00:21:38;;;;;;;10.57;6.63;;;2.00;35.30;;;;;;7367939;19;20046;-70
2023/03/15 00:24:09;;;;;;;11.07;6.85;;;2.00;35.60;;;;;;7368441;19;20094;-70
2023/03/15 00:26:39;;;;;;;14.93;6.97;;;1.90;35.40;;;;;;7383067;19;20023;-71
2023/03/15 00:29:09;;;;;;;11.40;6.90;;;2.00;35.60;;;;;;7389515;19;20467;-70
2023/03/15 00:31:41;;;;;;;14.70;8.20;;;1.90;35.50;;;;;;7370170;19;20007;-70
2023/03/15 00:34:12;;;;;;;16.55;7.65;;;1.90;35.50;;;;;;7368320;19;20007;-70
2023/03/15 00:36:43;;;;;;;17.92;8.10;;;1.90;35.50;;;;;;7366535;19;20018;-70
2023/03/15 00:39:14;;;;;;;14.38;7.38;;;1.90;35.50;;;;;;7368709;19;20485;-70
2023/03/15 00:41:44;;;;;;;14.43;8.25;;;1.90;35.50;;;;;;7367217;19;20019;-70
2023/03/15 00:44:14;;;;;;;13.95;7.82;;;1.90;35.50;;;;;;7388665;19;20121;-71
2023/03/15 00:46:47;;;;;;;15.63;7.72;;;1.90;35.50;;;;;;7367832;19;20011;-69
2023/03/15 00:49:17;;;;;;;13.02;8.20;;;1.90;35.60;;;;;;7368309;19;20003;-71
2023/03/15 00:51:47;;;;;;;12.20;6.97;;;1.90;35.60;;;;;;7367258;19;20015;-70
2023/03/15 00:54:17;;;;;;;17.02;8.02;;;1.90;35.50;;;;;;7368014;19;20517;-70
2023/03/15 00:56:46;;;;;;;16.55;7.95;;;1.90;36.70;;;;;;7367456;19;20022;-70
2023/03/15 00:59:16;;;;;;;17.67;8.15;;;1.90;36.90;;;;;;7389606;19;20021;-70
2023/03/15 01:01:49;;;;;;;16.95;6.55;;;1.90;36.60;;;;;;7367121;19;20118;-70
2023/03/15 01:04:19;;;;;;;14.98;6.90;;;1.80;35.80;;;;;;7366931;19;20458;-70
2023/03/15 01:06:49;;;;;;;15.68;7.88;;;1.80;35.40;;;;;;7368091;19;20010;-70
2023/03/15 01:09:19;;;;;;;14.65;7.13;;;1.90;36.40;;;;;;7367698;19;20006;-70
2023/03/15 01:11:49;;;;;;;16.50;6.85;;;1.90;36.20;;;;;;7367785;19;20478;-70
2023/03/15 01:14:20;;;;;;;12.13;6.38;;;1.80;35.40;;;;;;7388880;19;20095;-70
2023/03/15 01:16:52;;;;;;;13.57;6.10;;;1.80;35.50;;;;;;7365532;19;20015;-70
2023/03/15 01:19:22;;;;;;;12.40;6.38;;;1.70;35.40;;;;;;7365046;19;20010;-70
2023/03/15 01:21:52;;;;;;;12.40;6.43;;;1.70;35.90;;;;;;7368325;19;20097;-69
2023/03/15 01:24:22;;;;;;;12.88;6.07;;;1.60;36.60;;;;;;7365453;19;20014;-69
2023/03/15 01:26:52;;;;;;;14.07;6.43;;;1.70;37.00;;;;;;7362535;19;20022;-70
2023/03/15 01:29:21;;;;;;;12.35;6.47;;;1.70;37.10;;;;;;7379582;19;20026;-70
2023/03/15 01:31:54;;;;;;;11.55;6.28;;;1.60;36.60;;;;;;7365935;19;20023;-71
2023/03/15 01:34:24;;;;;;;13.48;6.72;;;1.50;36.50;;;;;;7362980;19;20081;-71
2023/03/15 01:36:54;;;;;;;14.63;6.57;;;1.60;37.70;;;;;;7365673;19;20018;-70
2023/03/15 01:39:24;;;;;;;12.43;6.30;;;1.70;38.20;;;;;;7366111;19;20023;-71
2023/03/15 01:41:53;;;;;;;12.93;6.20;;;1.60;36.70;;;;;;7365488;19;20689;-71
2023/03/15 01:44:23;;;;;;;12.07;6.20;;;1.60;37.40;;;;;;7388480;19;20007;-71
2023/03/15 01:46:56;;;;;;;13.13;6.10;;;1.60;37.70;;;;;;7365591;19;20033;-71
2023/03/15 01:49:30;;;;;;;12.40;5.60;;;1.60;38.00;;;;;;7364360;19;20019;-71
2023/03/15 01:52:04;;;;;;;10.60;6.10;;;1.60;38.10;;;;;;7367160;19;20006;-71
2023/03/15 01:54:38;;;;;;;9.25;5.60;;;1.60;38.10;;;;;;7366686;19;20014;-71
2023/03/15 01:57:12;;;;;;;11.02;5.63;;;1.50;37.10;;;;;;7365263;19;20007;-71
2023/03/15 01:59:46;;;;;;;11.75;5.03;;;1.40;37.40;;;;;;7365228;19;20467;-70
2023/03/15 02:02:21;;;;;;;12.55;5.35;;;1.40;37.40;;;;;;7387873;19;20014;-70
2023/03/15 02:04:56;;;;;;;14.38;4.53;;;1.40;37.60;;;;;;7364254;19;20082;-69
2023/03/15 02:07:27;;;;;;;;;;;1.40;37.10;;;;;;7365381;19;20010;-70
2023/03/15 02:10:03;;;;;;;11.30;5.00;;;1.40;37.30;;;;;;7365319;19;19917;-71
2023/03/15 02:12:36;;;;;;;9.40;5.15;;;1.30;37.50;;;;;;7366420;19;20485;-71
2023/03/15 02:15:10;;;;;;;10.88;4.47;;;1.30;37.50;;;;;;7366892;19;20011;-71
2023/03/15 02:17:45;;;;;;;13.00;4.85;;;1.30;37.10;;;;;;7366777;19;20018;-70
2023/03/15 02:20:30;;;;;;;11.82;4.65;;;1.30;37.30;;;;;;7385824;19;20010;-71
2023/03/15 02:23:01;;;;;;;;;;;1.30;36.40;;;;;;7365479;19;20378;-71
2023/03/15 02:25:42;;;;;;;7.57;4.45;;;1.30;36.90;;;;;;7365462;19;19918;-70
2023/03/15 02:28:17;;;;;;;8.75;4.10;;;1.30;36.90;;;;;;7365177;19;20475;-70
2023/03/15 02:30:48;;;;;;;9.40;4.07;;;1.30;36.80;;;;;;7365730;19;20011;-71
2023/03/15 02:33:23;;;;;;;9.88;3.80;;;1.20;36.20;;;;;;7365857;19;20017;-70
2023/03/15 02:35:54;;;;;;;7.80;3.80;;;1.20;36.00;;;;;;7366665;19;20014;-70
2023/03/15 02:38:24;;;;;;;5.80;3.53;;;1.20;36.00;;;;;;7385923;19;20022;-70
2023/03/15 02:40:54;;;;;;;6.82;3.90;;;1.20;36.10;;;;;;7365856;19;20078;-70
2023/03/15 02:43:30;;;;;;;10.23;4.43;;;1.30;36.00;;;;;;7371727;19;20090;-70
2023/03/15 02:46:01;;;;;;;8.57;3.47;;;1.30;35.80;;;;;;7373828;19;20015;-70
2023/03/15 02:48:35;;;;;;;8.63;3.53;;;1.20;35.90;;;;;;7370772;19;20014;-70
2023/03/15 02:51:05;;;;;;;10.60;3.83;;;1.20;35.50;;;;;;7374341;19;20030;-70
2023/03/15 02:53:35;;;;;;;8.75;3.35;;;1.20;34.90;;;;;;7393801;19;20017;-70
2023/03/15 02:56:06;;;;;;;7.28;3.28;;;1.20;34.90;;;;;;7373469;19;20077;-70
2023/03/15 02:58:38;;;;;;;6.35;2.70;;;1.20;33.50;;;;;;7371045;19;20018;-70
2023/03/15 03:01:08;;;;;;;5.40;2.55;;;1.30;32.40;;;;;;7372981;19;20006;-71
2023/03/15 03:03:38;;;;;;;6.45;3.05;;;1.30;31.90;;;;;;7370040;19;20026;-70
2023/03/15 03:06:08;;;;;;;6.07;2.65;;;1.30;30.80;;;;;;7373093;19;20034;-70
2023/03/15 03:08:38;;;;;;;9.93;2.83;;;1.30;29.90;;;;;;7392249;19;20017;-69
2023/03/15 03:11:08;;;;;;;6.85;2.55;;;1.30;29.10;;;;;;7372675;19;20459;-69
2023/03/15 03:13:41;;;;;;;5.35;2.33;;;1.30;29.20;;;;;;7371365;19;20553;-70
2023/03/15 03:16:11;;;;;;;6.53;2.58;;;1.30;28.60;;;;;;7371061;19;20055;-70
2023/03/15 03:18:41;;;;;;;5.45;2.70;;;1.30;28.60;;;;;;7368634;19;20039;-69
2023/03/15 03:21:13;;;;;;;8.35;2.63;;;1.30;28.40;;;;;;7372977;19;20010;-70
2023/03/15 03:23:45;;;;;;;7.95;2.88;;;1.30;28.00;;;;;;7369070;19;20026;-70
2023/03/15 03:26:16;;;;;;;7.47;2.70;;;1.30;28.10;;;;;;7393753;19;20018;-70
2023/03/15 03:28:49;;;;;;;8.85;3.05;;;1.20;28.20;;;;;;7370289;19;20089;-69
2023/03/15 03:31:22;;;;;;;7.85;2.75;;;1.20;27.70;;;;;;7372763;19;20490;-69
2023/03/15 03:33:52;;;;;;;8.18;2.92;;;1.20;27.40;;;;;;7371265;19;20538;-69
2023/03/15 03:36:23;;;;;;;8.95;2.67;;;1.20;27.40;;;;;;7370331;19;20537;-70
2023/03/15 03:38:55;;;;;;;6.97;2.75;;;1.20;27.40;;;;;;7371995;19;20010;-70
2023/03/15 03:41:25;;;;;;;6.28;2.92;;;1.10;27.30;;;;;;7390769;19;20019;-70
2023/03/15 03:43:58;;;;;;;6.30;3.00;;;1.20;27.30;;;;;;7368786;19;20006;-70
2023/03/15 03:46:28;;;;;;;7.90;2.58;;;1.20;26.20;;;;;;7369716;19;20517;-70
2023/03/15 03:48:58;;;;;;;8.13;3.13;;;1.10;26.70;;;;;;7370443;19;20010;-70
2023/03/15 03:51:28;;;;;;;9.68;3.33;;;1.10;26.70;;;;;;7370025;19;20015;-70
2023/03/15 03:53:58;;;;;;;7.57;2.97;;;1.10;26.50;;;;;;7368610;19;20020;-70
2023/03/15 03:56:28;;;;;;;9.32;2.80;;;1.10;26.70;;;;;;7391277;19;20042;-70
2023/03/15 03:59:00;;;;;;;7.07;3.38;;;1.20;26.60;;;;;;7370927;19;20114;-70
2023/03/15 04:01:30;;;;;;;6.38;3.17;;;1.10;26.10;;;;;;7369131;19;20011;-70
2023/03/15 04:04:00;;;;;;;7.55;3.05;;;1.20;26.00;;;;;;7369180;19;20011;-70
2023/03/15 04:06:30;;;;;;;6.28;3.10;;;1.20;26.20;;;;;;7369161;19;20010;-70
2023/03/15 04:09:01;;;;;;;8.95;3.10;;;1.20;26.30;;;;;;7371466;19;20336;-70
2023/03/15 04:11:31;;;;;;;7.93;3.70;;;1.10;26.20;;;;;;7390825;19;20077;-70
2023/03/15 04:14:03;;;;;;;5.80;3.08;;;1.10;25.90;;;;;;7369095;19;20017;-70
2023/03/15 04:16:33;;;;;;;12.55;3.70;;;1.10;24.80;;;;;;7369020;19;20011;-70
2023/03/15 04:19:03;;;;;;;7.20;3.15;;;1.20;24.50;;;;;;7369423;19;20014;-70
2023/03/15 04:21:33;;;;;;;8.73;3.45;;;1.10;24.40;;;;;;7369756;19;20082;-70
2023/03/15 04:24:04;;;;;;;7.10;3.13;;;1.00;24.70;;;;;;7368621;19;20014;-70
2023/03/15 04:26:33;;;;;;;7.53;2.78;;;0.90;25.80;;;;;;7389691;19;20470;-70
2023/03/15 04:29:06;;;;;;;7.35;3.10;;;0.90;26.80;;;;;;7370103;19;20510;-70
2023/03/15 04:31:37;;;;;;;8.38;3.20;;;0.80;27.10;;;;;;7367497;19;20015;-70
2023/03/15 04:34:07;;;;;;;9.43;2.80;;;0.80;27.70;;;;;;7369543;19;20379;-70
2023/03/15 04:36:36;;;;;;;5.57;2.72;;;0.80;27.60;;;;;;7368560;19;20014;-70
2023/03/15 04:39:07;;;;;;;9.38;3.38;;;0.80;27.60;;;;;;7369405;19;20485;-70
2023/03/15 04:41:38;;;;;;;8.30;3.20;;;0.80;27.50;;;;;;7390670;19;20023;-70
2023/03/15 04:44:10;;;;;;;7.10;3.38;;;0.80;27.10;;;;;;7367721;19;20014;-69
2023/03/15 04:46:40;;;;;;;13.98;4.30;;;0.80;27.10;;;;;;7367659;19;20486;-70
2023/03/15 04:49:10;;;;;;;8.85;3.88;;;0.90;27.10;;;;;;7369681;19;20006;-70
2023/03/15 04:51:40;;;;;;;9.00;3.95;;;0.80;26.30;;;;;;7368226;19;20006;-70
2023/03/15 04:54:09;;;;;;;8.23;4.43;;;0.80;26.30;;;;;;7368285;19;20101;-70
2023/03/15 04:56:40;;;;;;;12.57;4.63;;;0.90;25.80;;;;;;7375685;19;20450;-69
2023/03/15 04:59:13;;;;;;;12.00;4.60;;;0.90;23.80;;;;;;7390738;19;20070;-69
2023/03/15 05:01:43;;;;;;;10.73;4.72;;;0.90;23.70;;;;;;7368529;19;20070;-70
2023/03/15 05:04:13;;;;;;;11.02;5.68;;;0.90;21.90;;;;;;7368195;19;20351;-70
2023/03/15 05:06:42;;;;;;;11.43;5.07;;;0.90;20.70;;;;;;7366640;19;20014;-70
2023/03/15 05:09:17;;;;;;;9.77;5.25;;;0.90;20.50;;;;;;7365917;19;20106;-70
2023/03/15 05:11:48;;;;;;;9.77;4.70;;;0.90;20.10;;;;;;7368739;19;20018;-69
2023/03/15 05:14:20;;;;;;;10.68;4.95;;;0.90;20.10;;;;;;7389632;19;20364;-69
2023/03/15 05:16:54;;;;;;;11.77;5.10;;;0.80;20.40;;;;;;7367069;19;20362;-69
2023/03/15 05:19:24;;;;;;;8.95;5.07;;;0.90;20.40;;;;;;7366517;19;20025;-69
2023/03/15 05:21:54;;;;;;;11.13;5.00;;;0.90;20.60;;;;;;7368966;19;20462;-69
2023/03/15 05:24:24;;;;;;;13.05;5.20;;;0.90;20.50;;;;;;7365134;19;20010;-70
2023/03/15 05:26:54;;;;;;;11.57;5.22;;;0.80;20.40;;;;;;7367054;19;20066;-70
2023/03/15 05:29:26;;;;;;;9.48;4.60;;;0.80;20.40;;;;;;7387370;19;20094;-70
2023/03/15 05:31:56;;;;;;;14.30;5.20;;;0.80;20.40;;;;;;7367786;19;20451;-69
2023/03/15 05:34:26;;;;;;;10.65;5.22;;;0.80;18.80;;;;;;7365982;19;20505;-69
2023/03/15 05:36:55;;;;;;;13.30;5.65;;;0.90;18.40;;;;;;7366881;19;20470;-68
2023/03/15 05:39:25;;;;;;;10.43;5.30;;;0.90;17.90;;;;;;7365134;19;20075;-70
2023/03/15 05:41:55;;;;;;;12.30;5.18;;;0.90;17.40;;;;;;7367957;19;20025;-70
2023/03/15 05:44:28;;;;;;;12.25;5.50;;;0.90;17.70;;;;;;7385522;19;20021;-70
2023/03/15 05:46:57;;;;;;;8.40;5.03;;;0.90;17.00;;;;;;7365936;19;20015;-70
2023/03/15 05:49:27;;;;;;;9.80;4.95;;;1.00;17.00;;;;;;7365536;19;20098;-70
2023/03/15 05:51:57;;;;;;;12.82;5.82;;;1.00;16.60;;;;;;7367599;19;20711;-70
2023/03/15 05:54:27;;;;;;;10.32;5.00;;;1.00;15.80;;;;;;7365407;19;20010;-71
2023/03/15 05:56:57;;;;;;;16.92;5.45;;;1.10;14.90;;;;;;7366744;19;20010;-71
2023/03/15 05:59:29;;;;;;;7.82;5.15;;;1.10;14.40;;;;;;7386918;19;20362;-70
2023/03/15 06:01:59;;;;;;;13.30;5.60;;;1.20;13.90;;;;;;7366968;19;20013;-70
2023/03/15 06:04:29;;;;;;;14.02;5.68;;;1.20;13.80;;;;;;7362823;19;20461;-70
2023/03/15 06:06:59;;;;;;;11.50;4.85;;;1.30;13.40;;;;;;7365514;19;20355;-70
2023/03/15 06:09:29;;;;;;;13.18;5.07;;;1.30;11.20;;;;;;7366149;19;20348;-69
2023/03/15 06:12:00;;;;;;;10.30;4.20;;;1.40;11.20;;;;;;7367705;19;20459;-71
2023/03/15 06:14:32;;;;;;;11.13;4.53;;;1.40;10.30;;;;;;7387930;19;20018;-70
2023/03/15 06:17:02;;;;;;;7.75;3.97;;;1.50;10.30;;;;;;7374968;19;20467;-70
2023/03/15 06:19:32;;;;;;;9.32;3.88;;;1.50;9.30;;;;;;7378685;19;20010;-69
2023/03/15 06:22:02;;;;;;;12.68;3.92;;;1.60;7.10;;;;;;7382165;19;20010;-70
2023/03/15 06:24:32;;;;;;;8.70;4.28;;;1.70;6.20;;;;;;7378423;19;20006;-70
2023/03/15 06:27:02;;;;;;;10.68;3.63;;;1.80;4.70;;;;;;7378926;19;20077;-70
2023/03/15 06:29:34;;;;;;;13.70;4.18;;;1.80;4.50;;;;;;7399723;19;20015;-70
2023/03/15 06:32:04;;;;;;;12.85;3.95;;;1.80;3.70;;;;;;7379848;19;20107;-70
2023/03/15 06:34:34;;;;;;;10.45;4.30;;;1.90;3.40;;;;;;7379017;19;20038;-70
2023/03/15 06:37:04;;;;;;;9.82;4.13;;;2.00;2.10;;;;;;7378225;19;20007;-70
2023/03/15 06:39:35;;;;;;;12.07;4.50;;;2.10;3.20;;;;;;7377802;19;20464;-70
2023/03/15 06:42:07;;;;;;;7.70;3.80;;;2.10;1.00;;;;;;7380594;19;20017;-70
2023/03/15 06:44:40;;;;;;;11.00;3.90;;;2.10;1.10;;;;;;7399430;19;20015;-70
2023/03/15 06:47:11;;;;;;;11.48;3.97;;;2.20;1.00;;;;;;7378365;19;20030;-69
2023/03/15 06:49:41;;;;;;;13.88;4.50;;;2.30;1.00;;;;;;7377828;19;20054;-70
2023/03/15 06:52:11;;;;;;;9.07;3.53;;;2.40;1.00;;;;;;7380214;19;20011;-70
2023/03/15 06:54:41;;;;;;;7.53;3.08;;;2.40;1.00;;;;;;7378510;19;20050;-69
2023/03/15 06:57:11;;;;;;;11.30;3.35;;;2.50;1.00;;;;;;7377465;19;20013;-70
2023/03/15 06:59:43;;;;;;;6.70;2.95;;;2.60;1.00;;;;;;7377850;19;20015;-71
2023/03/15 07:02:16;;;;;;;8.23;3.20;;;2.60;1.00;;;;;;7399534;19;20003;-69
2023/03/15 07:04:46;;;;;;;5.78;3.53;;;2.80;1.00;;;;;;7375070;19;20061;-69
2023/03/15 07:07:17;;;;;;;8.43;3.50;;;2.90;1.00;;;;;;7373813;19;20125;-69
2023/03/15 07:09:46;;;;;;;7.32;2.80;;;3.00;1.00;;;;;;7376815;19;20493;-69
2023/03/15 07:12:16;;;;;;;10.43;3.22;;;3.10;1.00;;;;;;7379003;19;20010;-68
2023/03/15 07:14:48;;;;;;;9.25;3.13;;;3.20;1.00;;;;;;7376298;19;20074;-69
2023/03/15 07:17:18;;;;;;;11.00;2.70;;;3.30;1.00;;;;;;7397698;19;20512;-70
2023/03/15 07:19:49;;;;;;;10.88;3.38;;;3.30;1.00;;;;;;7372983;19;20083;-70
2023/03/15 07:22:25;;;;;;;9.73;4.28;;;3.50;1.00;;;;;;7377116;19;20035;-69
2023/03/15 07:24:55;;;;;;;4.95;2.63;;;3.50;1.00;;;;;;7373721;19;20506;-69
2023/03/15 07:27:25;;;;;;;9.85;2.88;;;3.60;1.00;;;;;;7371645;19;20538;-68
2023/03/15 07:29:57;;;;;;;7.65;2.53;;;3.60;1.00;;;;;;7366638;19;20362;-68
2023/03/15 07:32:29;;;;;;;5.75;2.50;;;3.70;1.00;;;;;;7391780;19;20014;-69
2023/03/15 07:34:59;;;;;;;6.10;2.38;;;3.80;1.00;;;;;;7370363;19;20025;-69
2023/03/15 07:37:29;;;;;;;9.00;2.85;;;3.90;1.00;;;;;;7363846;19;20023;-68
2023/03/15 07:40:08;;;;;;;5.55;2.75;;;3.90;1.00;;;;;;7369883;19;20048;-69
2023/03/15 07:42:38;;;;;;;8.02;3.10;;;4.10;1.00;;;;;;7371850;19;20388;-69
2023/03/15 07:45:12;;;;;;;10.43;2.63;;;4.00;1.00;;;;;;7367173;19;20007;-69
2023/03/15 07:47:41;;;;;;;7.13;2.40;;;4.20;1.00;;;;;;7369155;19;20021;-70
2023/03/15 07:50:14;;;;;;;9.98;2.70;;;4.10;1.00;;;;;;7389610;19;20014;-70
2023/03/15 07:52:45;;;;;;;10.60;2.95;;;4.20;1.00;;;;;;7368931;19;20010;-68
2023/03/15 07:55:15;;;;;;;14.52;3.03;;;4.10;1.00;;;;;;7368937;19;20636;-69
2023/03/15 07:57:45;;;;;;;9.27;2.75;;;4.20;1.00;;;;;;7367636;19;20017;-68
2023/03/15 08:00:22;;;;;;;10.57;2.45;;;4.20;1.00;;;;;;7367269;19;20092;-69
2023/03/15 08:02:52;;;;;;;6.47;2.22;;;4.20;1.00;;;;;;7370190;19;20019;-69
2023/03/15 08:05:23;;;;;;;9.10;2.53;;;4.40;1.00;;;;;;7388489;19;20030;-69
2023/03/15 08:07:53;;;;;;;4.53;2.17;;;4.40;1.00;;;;;;7366745;19;20076;-68
2023/03/15 08:10:23;;;;;;;5.93;2.22;;;4.50;1.00;;;;;;7366510;19;20086;-69
2023/03/15 08:12:53;;;;;;;7.70;2.28;;;4.50;1.00;;;;;;7370484;19;20006;-69
2023/03/15 08:15:25;;;;;;;11.30;2.40;;;4.70;1.00;;;;;;7368337;19;20405;-69
2023/03/15 08:17:55;;;;;;;5.88;1.90;;;4.70;1.00;;;;;;7363563;19;20034;-68
2023/03/15 08:20:26;;;;;;;4.68;1.77;;;4.80;1.00;;;;;;7387470;19;20006;-70
2023/03/15 08:22:58;;;;;;;9.93;1.90;;;5.00;1.00;;;;;;7371979;19;20014;-69
2023/03/15 08:25:28;;;;;;;9.02;2.13;;;4.90;1.00;;;;;;7368643;19;20392;-70
2023/03/15 08:27:59;;;;;;;5.15;1.95;;;4.90;1.00;;;;;;7369340;19;20010;-69
2023/03/15 08:30:31;;;;;;;8.57;2.30;;;5.10;1.00;;;;;;7368797;19;20050;-69
2023/03/15 08:33:01;;;;;;;9.43;2.13;;;5.10;1.00;;;;;;7371692;19;20025;-70
2023/03/15 08:35:31;;;;;;;5.22;1.77;;;5.10;1.00;;;;;;7392972;19;20026;-70
2023/03/15 08:38:01;;;;;;;6.68;2.15;;;5.20;1.00;;;;;;7369206;19;20010;-69
2023/03/15 08:40:32;;;;;;;3.88;2.03;;;5.30;1.00;;;;;;7368957;19;20103;-70
2023/03/15 08:43:02;;;;;;;8.32;2.67;;;5.50;1.00;;;;;;7370064;19;20431;-70
2023/03/15 08:45:34;;;;;;;5.95;1.58;;;5.80;1.00;;;;;;7369897;19;20007;-70
2023/03/15 08:48:24;;;;;;;8.23;1.90;;;6.20;1.00;;;;;;7369001;19;20011;-70
2023/03/15 08:51:04;;;;;;;8.68;2.10;;;6.20;1.00;;;;;;7368854;19;20010;-70
2023/03/15 08:53:34;;;;;;;9.18;2.03;;;6.20;1.00;;;;;;7390334;19;20463;-70
2023/03/15 08:56:04;;;;;;;6.65;1.92;;;5.80;1.00;;;;;;7369905;19;20010;-70
2023/03/15 08:58:34;;;;;;;8.95;2.25;;;5.80;1.00;;;;;;7368969;19;20018;-70
2023/03/15 09:01:07;;;;;;;4.80;1.50;;;5.90;1.00;;;;;;7369613;19;20019;-70
2023/03/15 09:03:37;;;;;;;10.70;2.00;;;6.10;1.00;;;;;;7368609;19;20028;-70
2023/03/15 09:06:07;;;;;;;7.28;1.95;;;6.00;1.00;;;;;;7368637;19;20526;-70
2023/03/15 09:08:37;;;;;;;5.53;1.80;;;6.00;1.00;;;;;;7390728;19;20021;-69
2023/03/15 09:11:07;;;;;;;6.05;1.98;;;6.00;1.00;;;;;;7369985;19;20470;-69
2023/03/15 09:13:37;;;;;;;6.90;1.70;;;6.10;1.00;;;;;;7368592;19;20612;-70
2023/03/15 09:16:09;;;;;;;5.03;1.45;;;6.10;1.00;;;;;;7369150;19;20474;-70
2023/03/15 09:18:39;;;;;;;7.97;1.60;;;6.30;1.00;;;;;;7369054;19;20030;-70
2023/03/15 09:21:09;;;;;;;9.40;1.27;;;6.10;1.00;;;;;;7369471;19;20010;-70
2023/03/15 09:23:39;;;;;;;5.22;1.58;;;6.30;1.00;;;;;;7382088;19;20018;-69
2023/03/15 09:26:09;;;;;;;3.03;1.25;;;6.40;1.00;;;;;;7389137;19;20032;-70
2023/03/15 09:28:38;;;;;;;6.40;1.58;;;6.30;1.00;;;;;;7368084;19;20010;-68
2023/03/15 09:31:11;;;;;;;7.85;1.63;;;6.50;1.00;;;;;;7369667;19;20015;-69
2023/03/15 09:33:41;;;;;;;4.80;1.25;;;6.50;1.00;;;;;;7369192;19;20804;-70
2023/03/15 09:36:11;;;;;;;4.88;1.58;;;6.60;1.00;;;;;;7368731;19;20015;-70
2023/03/15 09:38:41;;;;;;;8.52;1.52;;;6.20;1.00;;;;;;7368049;19;20016;-69
2023/03/15 09:41:20;;;;;;;6.70;1.10;;;6.80;1.00;;;;;;7390421;19;20431;-70
2023/03/15 09:44:03;;;;;;;7.20;1.40;;;6.80;1.00;;;;;;7367843;19;20007;-70
2023/03/15 09:46:40;;;;;;;5.28;1.50;;;6.80;1.00;;;;;;7366015;19;20011;-70
2023/03/15 09:49:15;;;;;;;6.18;1.20;;;6.70;1.00;;;;;;7367546;19;20514;-70
2023/03/15 09:51:50;;;;;;;7.88;1.30;;;7.00;1.00;;;;;;7365180;19;20506;-71
2023/03/15 09:54:24;;;;;;;5.47;1.40;;;7.00;1.00;;;;;;7367345;19;20084;-70
2023/03/15 09:57:00;;;;;;;5.22;1.88;;;6.60;1.00;;;;;;7366814;19;20372;-70
2023/03/15 09:59:35;;;;;;;5.40;1.10;;;7.20;1.00;;;;;;7388369;19;20018;-70
2023/03/15 10:02:19;;;;;;;10.18;4.70;;;6.90;1.00;;;;;;7367888;19;20018;-69
2023/03/15 10:04:54;;;;;;;8.40;1.20;;;7.10;1.00;;;;;;7367207;19;20010;-69
2023/03/15 10:07:24;;;;;;;4.50;1.38;;;7.40;1.00;;;;;;7365440;19;20014;-70
2023/03/15 10:09:57;;;;;;;4.07;1.10;;;7.30;1.00;;;;;;7366739;19;20097;-69
2023/03/15 10:12:32;;;;;;;7.25;1.15;;;7.40;1.00;;;;;;7366984;19;20747;-70
2023/03/15 10:15:20;;;;;;;4.35;1.00;;;7.50;1.00;;;;;;7366572;19;20375;-71
2023/03/15 10:18:04;;;;;;;4.95;1.33;;;7.50;1.00;;;;;;7366753;19;20565;-70
2023/03/15 10:20:38;;;;;;;4.53;1.40;;;7.70;1.00;;;;;;7386671;19;20010;-70
2023/03/15 10:23:13;;;;;;;8.45;1.27;;;7.50;1.00;;;;;;7368458;19;20517;-70
2023/03/15 10:25:43;;;;;;;7.72;1.38;;;7.70;1.00;;;;;;7364735;19;20018;-70
2023/03/15 10:28:15;;;;;;;7.20;1.60;;;7.70;1.00;;;;;;7367756;19;20490;-70
2023/03/15 10:30:50;;;;;;;3.65;1.17;;;7.50;1.00;;;;;;7366631;19;20007;-69
2023/03/15 10:33:30;;;;;;;7.22;2.00;;;7.90;1.00;;;;;;7366550;19;20003;-70
2023/03/15 10:36:01;;;;;;;4.78;1.27;;;7.80;1.00;;;;;;7366828;19;20022;-70
2023/03/15 10:38:41;;;;;;;7.90;1.45;;;7.90;1.00;;;;;;7370325;19;20010;-70
2023/03/15 10:41:13;;;;;;;5.68;1.63;;;8.20;1.00;;;;;;7387853;19;20347;-70
2023/03/15 10:44:00;;;;;;;12.73;1.58;;;8.60;1.00;;;;;;7365055;19;20014;-70
2023/03/15 10:46:30;;;;;;;4.53;1.23;;;9.00;1.00;;;;;;7363903;19;19998;-69
2023/03/15 10:49:11;;;;;;;6.22;1.27;;;8.70;1.00;;;;;;7366244;19;20475;-70
2023/03/15 10:51:44;;;;;;;6.78;1.90;;;8.10;1.00;;;;;;7364875;19;20016;-69
2023/03/15 10:54:16;;;;;;;6.35;1.50;;;8.10;1.00;;;;;;7365988;19;20020;-70
2023/03/15 10:56:49;;;;;;;3.97;1.10;;;7.70;1.00;;;;;;7365125;19;20339;-69
2023/03/15 10:59:21;;;;;;;3.00;1.27;;;7.70;1.00;;;;;;7387683;19;20017;-69
2023/03/15 11:01:53;;;;;;;4.22;1.45;;;7.50;1.00;;;;;;7367046;19;20017;-68
2023/03/15 11:04:29;;;;;;;3.22;1.25;;;7.20;1.00;;;;;;7373410;19;20010;-69
2023/03/15 11:07:06;;;;;;;3.85;1.52;;;7.20;1.00;;;;;;7371623;19;20070;-69
2023/03/15 11:09:42;;;;;;;4.55;1.88;;;7.00;1.00;;;;;;7372482;19;20014;-69
2023/03/15 11:12:17;;;;;;;5.20;1.25;;;6.90;1.00;;;;;;7374665;19;20349;-69
2023/03/15 11:14:50;;;;;;;3.53;0.93;;;6.70;1.00;;;;;;7373044;19;20025;-70
2023/03/15 11:17:23;;;;;;;2.58;1.00;;;6.80;1.00;;;;;;7393642;19;20014;-70
2023/03/15 11:19:58;;;;;;;3.90;0.93;;;7.00;1.00;;;;;;7371104;19;20031;-70
2023/03/15 11:22:29;;;;;;;2.75;1.50;;;7.10;1.00;;;;;;7373051;19;20010;-69
2023/03/15 11:24:58;;;;;;;2.47;0.75;;;6.90;1.00;;;;;;7372292;19;20018;-70
2023/03/15 11:27:30;;;;;;;4.32;1.00;;;6.80;1.00;;;;;;7369826;19;20010;-70
2023/03/15 11:30:03;;;;;;;4.38;1.30;;;6.80;1.00;;;;;;7371440;19;20119;-70
2023/03/15 11:32:34;;;;;;;2.67;0.77;;;6.60;1.00;;;;;;7394611;19;20520;-69
2023/03/15 11:35:09;;;;;;;5.40;1.05;;;6.70;1.00;;;;;;7372464;19;20047;-69
2023/03/15 11:37:45;;;;;;;3.75;1.15;;;6.50;1.00;;;;;;7370504;19;20014;-69
2023/03/15 11:40:22;;;;;;;4.30;1.20;;;6.20;1.00;;;;;;7372493;19;20379;-69
2023/03/15 11:42:59;;;;;;;2.55;1.20;;;6.10;1.00;;;;;;7371634;19;20420;-70
2023/03/15 11:45:36;;;;;;;4.25;1.30;;;6.20;1.00;;;;;;7372199;19;20014;-70
2023/03/15 11:48:13;;;;;;;3.45;1.15;;;6.20;1.00;;;;;;7370840;19;20604;-70
2023/03/15 11:50:46;;;;;;;3.53;1.25;;;6.00;1.00;;;;;;7370131;19;20057;-70
2023/03/15 11:53:18;;;;;;;3.00;1.50;;;6.00;1.00;;;;;;7394698;19;20006;-70
2023/03/15 11:55:52;;;;;;;4.60;1.58;;;6.00;1.00;;;;;;7371276;19;20081;-69
2023/03/15 11:58:34;;;;;;;3.38;1.08;;;6.30;1.00;;;;;;7370381;19;20082;-70
2023/03/15 12:01:05;;;;;;;4.38;1.30;;;6.40;1.00;;;;;;7371723;19;20082;-69
2023/03/15 12:03:42;;;;;;;3.95;1.50;;;6.40;1.00;;;;;;7370558;19;20015;-69
2023/03/15 12:06:36;;;;;;;3.58;1.20;;;6.30;1.00;;;;;;7371710;19;20015;-69
2023/03/15 12:09:36;;;;;;;7.18;1.50;;;6.20;1.00;;;;;;7371899;19;20018;-69
2023/03/15 12:12:28;;;;;;;3.78;1.42;;;6.20;1.00;;;;;;7372538;19;20027;-70
2023/03/15 12:15:09;;;;;;;3.97;1.60;;;6.20;1.00;;;;;;7370132;19;20035;-69
2023/03/15 12:17:46;;;;;;;3.70;1.45;;;6.10;1.00;;;;;;7377224;19;20748;-69
2023/03/15 12:20:23;;;;;;;4.70;1.30;;;6.20;1.00;;;;;;7385337;19;20021;-70
2023/03/15 12:22:55;;;;;;;3.17;1.30;;;6.20;1.00;;;;;;7366837;19;20035;-69
2023/03/15 12:25:33;;;;;;;5.00;1.40;;;6.20;1.00;;;;;;7364813;19;20007;-69
2023/03/15 12:28:22;;;;;;;6.45;1.75;;;6.20;1.00;;;;;;7366354;19;20014;-68
2023/03/15 12:31:00;;;;;;;3.10;1.60;;;5.40;1.00;;;;;;7364341;19;20051;-68
2023/03/15 12:33:33;;;;;;;3.33;2.28;;;5.20;1.00;;;;;;7367763;19;20053;-68
2023/03/15 12:36:11;;;;;;;3.03;1.30;;;4.80;1.00;;;;;;7370734;19;20098;-69
2023/03/15 12:38:54;;;;;;;4.22;1.50;;;4.50;1.00;;;;;;7368862;19;20026;-69
2023/03/15 12:41:38;;;;;;;3.20;1.58;;;4.50;1.00;;;;;;7390587;19;20006;-69
2023/03/15 12:44:26;;;;;;;5.28;1.90;;;4.50;1.00;;;;;;7369662;19;20015;-70
2023/03/15 12:47:00;;;;;;;3.67;1.67;;;4.20;1.00;;;;;;7368647;19;20006;-67
2023/03/15 12:49:34;;;;;;;;;;;4.20;1.00;;;;;;7368272;19;20024;-69
2023/03/15 12:52:06;;;;;;;4.75;1.95;;;4.20;1.00;;;;;;7371703;19;19918;-68
2023/03/15 12:54:44;;;;;;;5.10;2.17;;;4.40;1.00;;;;;;7368967;19;20085;-68
2023/03/15 12:57:15;;;;;;;4.80;1.80;;;4.30;1.00;;;;;;7369581;19;20062;-68
2023/03/15 12:59:51;;;;;;;3.88;1.75;;;4.30;1.00;;;;;;7367202;19;20035;-70
2023/03/15 13:02:32;;;;;;;4.70;1.80;;;4.20;1.00;;;;;;7391325;19;20010;-68
2023/03/15 13:05:24;;;;;;;4.55;2.08;;;4.50;1.00;;;;;;7369948;19;20415;-69
2023/03/15 13:07:59;;;;;;;5.45;1.60;;;4.70;1.00;;;;;;7368934;19;20395;-69
2023/03/15 13:10:39;;;;;;;6.63;1.85;;;4.50;1.20;;;;;;7368113;19;20049;-69
2023/03/15 13:13:29;;;;;;;9.18;2.42;;;4.40;1.00;;;;;;7370097;19;20504;-69
2023/03/15 13:16:14;;;;;;;3.30;1.90;;;4.70;1.00;;;;;;7368574;19;20036;-69
2023/03/15 13:18:56;;;;;;;5.55;2.10;;;4.70;1.00;;;;;;7367686;19;20020;-67
2023/03/15 13:21:29;;;;;;;5.82;2.40;;;4.70;1.00;;;;;;7368272;19;20094;-68
2023/03/15 13:24:00;;;;;;;4.87;2.10;;;5.00;1.00;;;;;;7368816;19;20097;-69
2023/03/15 13:26:44;;;;;;;6.05;1.90;;;4.80;1.00;;;;;;7387684;19;20069;-69
2023/03/15 13:29:16;;;;;;;5.43;2.22;;;4.80;1.00;;;;;;7366706;19;20396;-69